Etusivu
METAR-TAF:

METAR-TAF

Lentoasemat :

Kristianstad, Ruotsi

Leveyspiiri: 55-55N, Pituuspiiri: 014-05E, korkeus merenpinnasta: 23 m

Tämänhetkinen sää

Tämä raportti tehtiin 36 minuuttia sitten, kello 20.20 UTC
Tuuli 6 kn lännestä/luoteesta
Lämpötila 16°C
Kosteus 100%
Ilmanpaine 1013 hPa
Näkyvyys 10 km tai enemmän

METAR: ESMK 222020Z AUTO 30006KT 9999 FEW022/// OVC041/// 16/16 Q1013 REDZ

Aika: 22:56 (20:56 UTC)

Sääennuste

Tämä raportti tehtiin 7 tuntia ja 59 minuuttia sitten, kello 12.57 UTC
Ennuste voimassa 22. päivästä klo 12 UTC - 22. päivään klo 14 UTC
Tuuli 8 kn idästä
Näkyvyys 10 km tai enemmän
Hajonneita pilviä 400 ft:n korkeudessa
Ajoittain
22. päivästä klo 12 UTC - 22. päivään klo 14 UTC
Näkyvyys: 2500 m
Hajonneita pilviä 1500 ft:n korkeudessa
Hajonneita pilviä 2000 ft:n korkeudessa, Cumulonimbus.
sadetta,

TAF: ESMK 221257Z 2212/2214 08008KT 9999 BKN004 TEMPO 2212/2214 2500 RA BKN015 BKN020CB

Säähavainnot ja -ennusteet yli 4000 lentoasemalta (METAR- ja TAF-raportit).

Käytössä olevat sääasemat on merkitty karttaan keltaisilla ja punaisilla pisteillä.

Aseta hiiri pisteen päälle nähdäksesi sääaseman nimen.

Klikkaa sitten nähdäksesi säähavainnot ja -ennusteet.

Kartan vaihtaminen: klikkaa mustalla rastilla varustettuja vihreitä pisteitä, niin voit zoomata sisään; viivalla varustettua vihreää pistettä, niin voit zoomata ulos tai vihreitä nuolia, niin pääset viereisille kartoille.


METAR-TAF: